Time;durP1;ratioP1;P1;durP2;ratioP2;P2;SDS_P1;SDS_P2;PMS_P1;PMS_P2;Temp;Humidity;BMP_temperature;BMP_pressure;BME280_temperature;BME280_humidity;BME280_pressure;Samples;Min_cycle;Max_cycle;Signal;HPM_P1;HPM_P2
2022/10/10 00:00:00;;;;;;;1999.90;999.90;;;;;;;12.59;100.00;98614.66;4992989;28;20072;-74
2022/10/10 00:02:25;;;;;;;1999.90;999.90;;;;;;;12.70;100.00;98616.19;4993413;28;20041;-73
2022/10/10 00:04:52;;;;;;;1999.90;999.90;;;;;;;12.83;100.00;98607.25;4986812;28;20027;-75
2022/10/10 00:07:18;;;;;;;1999.90;999.90;;;;;;;13.01;100.00;98600.13;4972963;28;20073;-75
2022/10/10 00:09:44;;;;;;;1999.90;999.90;;;;;;;13.01;100.00;98596.56;4973300;28;20070;-76
2022/10/10 00:12:10;;;;;;;1999.90;999.90;;;;;;;13.06;100.00;98596.53;4973452;28;20054;-76
2022/10/10 00:14:35;;;;;;;1999.90;999.90;;;;;;;13.02;100.00;98607.28;4973592;28;20496;-75
2022/10/10 00:17:01;;;;;;;1999.90;999.90;;;;;;;12.97;100.00;98592.81;4972554;28;20062;-76
2022/10/10 00:19:26;;;;;;;1999.90;999.90;;;;;;;12.86;100.00;98594.84;4973921;28;20030;-76
2022/10/10 00:21:52;;;;;;;1999.90;999.90;;;;;;;12.76;100.00;98598.53;4977432;28;20029;-77
2022/10/10 00:24:17;;;;;;;1999.90;999.90;;;;;;;12.65;100.00;98591.56;4977739;28;20066;-75
2022/10/10 00:26:42;;;;;;;1999.90;999.90;;;;;;;12.61;100.00;98589.66;4972599;28;20035;-74
2022/10/10 00:29:08;;;;;;;1999.90;999.90;;;;;;;12.62;100.00;98591.31;4973498;28;20073;-75
2022/10/10 00:31:33;;;;;;;1999.90;999.90;;;;;;;12.73;100.00;98585.41;4982561;28;20034;-75
2022/10/10 00:33:58;;;;;;;1999.90;999.90;;;;;;;12.76;100.00;98601.28;4992787;28;20117;-75
2022/10/10 00:36:24;;;;;;;1999.90;999.90;;;;;;;12.71;100.00;98595.88;4992718;28;20035;-75
2022/10/10 00:38:49;;;;;;;1999.90;999.90;;;;;;;12.68;100.00;98607.44;4992373;28;20050;-75
2022/10/10 00:41:14;;;;;;;1999.90;999.90;;;;;;;12.63;100.00;98604.72;4992487;28;20034;-74
2022/10/10 00:43:40;;;;;;;1999.90;999.90;;;;;;;12.59;100.00;98603.69;4992689;28;20031;-76
2022/10/10 00:46:05;;;;;;;1999.90;999.90;;;;;;;12.57;100.00;98605.91;4992799;28;20490;-75
2022/10/10 00:48:42;;;;;;;1999.90;999.90;;;;;;;12.49;100.00;98609.31;4992134;28;20084;-75
2022/10/10 00:51:13;;;;;;;1999.90;999.90;;;;;;;12.51;100.00;98612.56;4992482;28;20452;-75
2022/10/10 00:53:43;;;;;;;1999.90;999.90;;;;;;;12.58;100.00;98607.56;4992731;28;20442;-75
2022/10/10 00:56:11;;;;;;;1999.90;999.90;;;;;;;12.63;100.00;98603.91;4992667;28;20439;-76
2022/10/10 00:58:40;;;;;;;1999.90;999.90;;;;;;;12.51;100.00;98607.06;4992879;28;20022;-75
2022/10/10 01:01:06;;;;;;;1999.90;999.90;;;;;;;12.48;100.00;98596.69;4992264;28;20093;-75
2022/10/10 01:03:31;;;;;;;1999.90;999.90;;;;;;;12.61;100.00;98590.50;4991728;28;20038;-76
2022/10/10 01:05:57;;;;;;;1999.90;999.90;;;;;;;12.65;100.00;98591.56;4992465;28;20099;-75
2022/10/10 01:08:22;;;;;;;1999.90;999.90;;;;;;;12.74;100.00;98583.47;4992073;28;20080;-76
2022/10/10 01:11:13;;;;;;;1999.90;999.90;;;;;;;12.72;100.00;98580.19;4992174;28;20031;-76
2022/10/10 01:13:44;;;;;;;1999.90;999.90;;;;;;;12.73;100.00;98576.34;4992035;28;20026;-75
2022/10/10 01:16:25;;;;;;;1999.90;999.90;;;;;;;12.60;100.00;98577.06;4992126;28;20034;-75
2022/10/10 01:19:10;;;;;;;1999.90;999.90;;;;;;;12.55;100.00;98575.19;4991950;28;20027;-75
2022/10/10 01:21:41;;;;;;;1999.90;999.90;;;;;;;12.64;100.00;98573.44;4991977;28;20488;-75
2022/10/10 01:24:37;;;;;;;1999.90;999.90;;;;;;;12.73;100.00;98574.41;4991962;28;20042;-75
2022/10/10 01:27:20;;;;;;;1999.90;999.90;;;;;;;12.86;100.00;98567.41;4978348;28;20038;-75
2022/10/10 01:30:00;;;;;;;1999.90;999.90;;;;;;;12.85;100.00;98569.31;4972841;28;20034;-75
2022/10/10 01:32:36;;;;;;;1999.90;999.90;;;;;;;12.64;100.00;98573.44;4972493;28;20030;-75
2022/10/10 01:35:05;;;;;;;1999.90;999.90;;;;;;;12.66;100.00;98576.69;4971074;28;20046;-75
2022/10/10 01:37:42;;;;;;;1999.90;999.90;;;;;;;12.59;100.00;98573.47;4972383;28;20035;-75
2022/10/10 01:40:16;;;;;;;1999.90;999.90;;;;;;;12.57;100.00;98567.47;4972137;28;20031;-76
2022/10/10 01:42:55;;;;;;;1999.90;999.90;;;;;;;12.61;100.00;98579.53;4972257;28;20737;-75
2022/10/10 01:45:21;;;;;;;1999.90;999.90;;;;;;;12.79;100.00;98570.50;4972237;28;20035;-74
2022/10/10 01:47:48;;;;;;;1999.90;999.90;;;;;;;12.82;100.00;98563.59;4971971;28;20034;-74
2022/10/10 01:50:17;;;;;;;1999.90;999.90;;;;;;;12.79;100.00;98575.16;4971777;28;20392;-75
2022/10/10 01:52:45;;;;;;;1999.90;999.90;;;;;;;12.69;100.00;98575.28;4972218;28;20031;-75
2022/10/10 01:55:32;;;;;;;1999.90;999.90;;;;;;;12.56;100.00;98571.31;4972354;28;20042;-74
2022/10/10 01:58:02;;;;;;;1999.90;999.90;;;;;;;12.62;100.00;98569.38;4972368;28;20057;-76
2022/10/10 02:00:35;;;;;;;1999.90;999.90;;;;;;;12.71;100.00;98562.09;4972587;28;20035;-76
2022/10/10 02:03:09;;;;;;;1999.90;999.90;;;;;;;12.84;100.00;98555.91;4971035;28;20039;-76
2022/10/10 02:05:34;;;;;;;1999.90;999.90;;;;;;;12.88;100.00;98556.91;4972131;28;20502;-75
2022/10/10 02:08:04;;;;;;;1999.90;999.90;;;;;;;12.76;100.00;98559.28;4972142;28;20137;-76
2022/10/10 02:10:34;;;;;;;1999.90;999.90;;;;;;;12.67;100.00;98561.88;4972219;28;20035;-76
2022/10/10 02:13:03;;;;;;;1999.90;999.90;;;;;;;12.70;100.00;98566.78;4972237;28;20105;-76
2022/10/10 02:15:36;;;;;;;1999.90;999.90;;;;;;;12.70;100.00;98564.03;4972134;28;20034;-75
2022/10/10 02:18:05;;;;;;;1999.90;999.90;;;;;;;12.67;100.00;98561.88;4972013;28;20073;-76
2022/10/10 02:20:31;;;;;;;1999.90;999.90;;;;;;;12.63;100.00;98554.50;4971770;28;20023;-75
2022/10/10 02:22:57;;;;;;;1999.90;999.90;;;;;;;12.56;100.00;98552.13;4972042;28;20506;-76
2022/10/10 02:25:30;;;;;;;1999.90;999.90;;;;;;;12.56;100.00;98565.84;4971994;28;20030;-76
2022/10/10 02:28:13;;;;;;;1999.90;999.90;;;;;;;12.63;100.00;98563.56;4971861;28;20135;-77
2022/10/10 02:30:44;;;;;;;1999.90;999.90;;;;;;;12.67;100.00;98556.38;4972950;28;20062;-76
2022/10/10 02:33:13;;;;;;;1999.90;999.90;;;;;;;12.77;100.00;98548.03;4976228;28;20035;-75
2022/10/10 02:35:41;;;;;;;1999.90;999.90;;;;;;;12.75;100.00;98544.75;4973784;28;20030;-75
2022/10/10 02:38:11;;;;;;;1999.90;999.90;;;;;;;12.66;100.00;98557.47;4971879;28;20023;-76
2022/10/10 02:40:38;;;;;;;1999.90;999.90;;;;;;;12.66;100.00;98553.91;4971671;28;20034;-75
2022/10/10 02:43:06;;;;;;;1999.90;999.90;;;;;;;12.64;100.00;98556.97;4971790;28;20113;-75
2022/10/10 02:45:33;;;;;;;1999.90;999.90;;;;;;;12.74;100.00;98551.38;4971816;28;20027;-75
2022/10/10 02:48:02;;;;;;;1999.90;999.90;;;;;;;12.72;100.00;98559.06;4971846;28;20041;-75
2022/10/10 02:50:28;;;;;;;1999.90;999.90;;;;;;;12.65;100.00;98550.38;4971912;28;20023;-76
2022/10/10 02:52:54;;;;;;;1999.90;999.90;;;;;;;12.64;100.00;98556.97;4973061;28;20023;-76
2022/10/10 02:55:19;;;;;;;1999.90;999.90;;;;;;;12.70;100.00;98547.56;4974712;28;20067;-74
2022/10/10 02:57:44;;;;;;;1999.90;999.90;;;;;;;12.52;100.00;98553.84;4974351;28;20037;-76
2022/10/10 03:00:11;;;;;;;1999.90;999.90;;;;;;;12.50;100.00;98552.50;4975138;28;20066;-77
2022/10/10 03:02:36;;;;;;;1999.90;999.90;;;;;;;12.57;100.00;98540.03;4973736;28;20391;-75
2022/10/10 03:05:02;;;;;;;1999.90;999.90;;;;;;;12.47;100.00;98545.66;4974283;28;20038;-76
2022/10/10 03:07:27;;;;;;;1999.90;999.90;;;;;;;12.37;100.00;98555.94;4971227;28;20047;-76
2022/10/10 03:09:52;;;;;;;1999.90;999.90;;;;;;;12.33;100.00;98558.44;4971675;28;20034;-75
2022/10/10 03:12:18;;;;;;;1999.90;999.90;;;;;;;12.29;100.00;98554.66;4971563;28;20035;-75
2022/10/10 03:14:44;;;;;;;1999.90;999.90;;;;;;;12.50;100.00;98555.25;4971474;28;20034;-76
2022/10/10 03:17:10;;;;;;;1999.90;999.90;;;;;;;12.50;100.00;98553.28;4971237;28;20037;-75
2022/10/10 03:19:35;;;;;;;1999.90;999.90;;;;;;;12.65;100.00;98550.38;4971460;28;20051;-76
2022/10/10 03:22:00;;;;;;;1999.90;999.90;;;;;;;12.67;100.00;98550.91;4971587;28;20066;-75
2022/10/10 03:24:26;;;;;;;1999.90;999.90;;;;;;;12.76;100.00;98551.88;4970264;28;20476;-76
2022/10/10 03:26:51;;;;;;;1999.90;999.90;;;;;;;12.59;100.00;98548.78;4971898;28;20045;-75
2022/10/10 03:29:17;;;;;;;1999.90;999.90;;;;;;;12.49;100.00;98543.44;4975600;28;20504;-76
2022/10/10 03:31:42;;;;;;;1999.90;999.90;;;;;;;12.31;100.00;98541.44;4974933;28;20023;-75
2022/10/10 03:34:08;;;;;;;1999.90;999.90;;;;;;;12.26;100.00;98536.03;4975158;28;20500;-76
2022/10/10 03:36:33;;;;;;;1999.90;999.90;;;;;;;12.22;100.00;98538.53;4974961;28;20480;-75
2022/10/10 03:38:58;;;;;;;1999.90;999.90;;;;;;;12.29;100.00;98538.19;4974787;28;20038;-75
2022/10/10 03:41:24;;;;;;;1999.90;999.90;;;;;;;12.33;100.00;98540.06;4974833;28;20019;-76
2022/10/10 03:43:49;;;;;;;1999.90;999.90;;;;;;;12.35;100.00;98542.50;4974817;28;20027;-75
2022/10/10 03:46:14;;;;;;;1999.90;999.90;;;;;;;12.41;100.00;98541.34;4974214;28;20027;-75
2022/10/10 03:48:40;;;;;;;1999.90;999.90;;;;;;;12.43;100.00;98543.78;4973540;28;20075;-76
2022/10/10 03:51:05;;;;;;;1999.90;999.90;;;;;;;12.38;100.00;98538.34;4973307;28;20122;-75
2022/10/10 03:53:30;;;;;;;1999.90;999.90;;;;;;;12.65;100.00;98536.66;4974322;28;20033;-75
2022/10/10 03:55:56;;;;;;;1999.90;999.90;;;;;;;12.67;100.00;98544.59;4974634;28;20043;-76
2022/10/10 03:58:21;;;;;;;1999.90;999.90;;;;;;;12.63;100.00;98543.53;4974159;28;20506;-76
2022/10/10 04:00:58;;;;;;;1999.90;999.90;;;;;;;12.52;100.00;98547.53;4974530;28;20464;-75
2022/10/10 04:03:24;;;;;;;1999.90;999.90;;;;;;;12.65;100.00;98542.16;4974065;28;20472;-74
2022/10/10 04:05:50;;;;;;;1999.90;999.90;;;;;;;12.69;100.00;98537.69;4974334;28;20066;-75
2022/10/10 04:08:16;;;;;;;1999.90;999.90;;;;;;;12.63;100.00;98543.53;4960476;28;20051;-75
2022/10/10 04:10:41;;;;;;;1999.90;999.90;;;;;;;12.72;100.00;98541.75;4988851;28;20031;-75
2022/10/10 04:13:07;;;;;;;1999.90;999.90;;;;;;;12.67;100.00;98537.16;4968340;28;20469;-75
2022/10/10 04:15:32;;;;;;;1999.90;999.90;;;;;;;12.58;100.00;98540.88;4956626;28;20027;-75
2022/10/10 04:17:58;;;;;;;1999.90;999.90;;;;;;;12.76;100.00;98534.56;4958488;28;20043;-76
2022/10/10 04:20:24;;;;;;;1999.90;999.90;;;;;;;12.93;100.00;98542.31;4988099;28;20030;-74
2022/10/10 04:22:50;;;;;;;1999.90;999.90;;;;;;;12.90;100.00;98539.03;4993076;28;20543;-75
2022/10/10 04:25:15;;;;;;;1999.90;999.90;;;;;;;12.87;100.00;98538.84;4993560;28;20026;-75
2022/10/10 04:27:42;;;;;;;1999.90;999.90;;;;;;;12.95;100.00;98542.84;4993314;28;20073;-75
2022/10/10 04:30:08;;;;;;;1999.90;999.90;;;;;;;12.96;100.00;98539.81;4989883;28;20014;-75
2022/10/10 04:32:34;;;;;;;1999.90;999.90;;;;;;;12.93;100.00;98547.81;4973710;28;20529;-76
2022/10/10 04:34:59;;;;;;;1999.90;999.90;;;;;;;13.01;100.00;98541.63;4973651;28;20034;-75
2022/10/10 04:37:24;;;;;;;1999.90;999.90;;;;;;;13.00;100.00;98542.78;4973836;28;20054;-75
2022/10/10 04:39:50;;;;;;;1999.90;999.90;;;;;;;13.11;100.00;98542.34;4972809;28;20031;-77
2022/10/10 04:42:16;;;;;;;1999.90;999.90;;;;;;;13.06;100.00;98536.09;4975803;28;20510;-76
2022/10/10 04:44:41;;;;;;;1999.90;999.90;;;;;;;12.99;100.00;98530.16;4976723;28;20034;-77
2022/10/10 04:47:06;;;;;;;1999.90;999.90;;;;;;;12.98;100.00;98534.00;4974220;28;20543;-76
2022/10/10 04:49:32;;;;;;;1999.90;999.90;;;;;;;12.84;100.00;98534.72;4974850;28;20027;-75
2022/10/10 04:51:57;;;;;;;1999.90;999.90;;;;;;;12.75;100.00;98536.50;4973860;28;20038;-74
2022/10/10 04:54:22;;;;;;;1999.90;999.90;;;;;;;12.72;100.00;98536.28;4973345;28;20491;-76
2022/10/10 04:56:48;;;;;;;1999.90;999.90;;;;;;;12.70;100.00;98531.09;4973254;28;20069;-76
2022/10/10 04:59:13;;;;;;;1999.90;999.90;;;;;;;12.70;100.00;98539.31;4973436;28;20102;-77
2022/10/10 05:01:38;;;;;;;1999.90;999.90;;;;;;;12.68;100.00;98530.59;4974707;28;20038;-76
2022/10/10 05:04:04;;;;;;;1999.90;999.90;;;;;;;12.60;100.00;98531.22;4980669;28;20471;-76
2022/10/10 05:06:30;;;;;;;1999.90;999.90;;;;;;;12.56;100.00;98521.94;4981242;28;20073;-77
2022/10/10 05:08:55;;;;;;;1999.90;999.90;;;;;;;12.61;100.00;98527.38;4982292;28;20036;-76
2022/10/10 05:11:20;;;;;;;1999.90;999.90;;;;;;;12.65;100.00;98533.09;4990147;28;20026;-75
2022/10/10 05:13:48;;;;;;;1999.90;999.90;;;;;;;12.54;100.00;98534.31;4982327;28;20034;-76
2022/10/10 05:16:14;;;;;;;1999.90;999.90;;;;;;;12.49;100.00;98542.63;4980181;28;20493;-76
2022/10/10 05:18:40;;;;;;;1999.90;999.90;;;;;;;12.49;100.00;98540.69;4966980;28;20559;-76
2022/10/10 05:21:06;;;;;;;1999.90;999.90;;;;;;;12.60;100.00;98544.13;4972106;28;20121;-76
2022/10/10 05:23:32;;;;;;;1999.90;999.90;;;;;;;12.73;100.00;98532.44;4972323;28;20033;-75
2022/10/10 05:25:57;;;;;;;1999.90;999.90;;;;;;;12.69;100.00;98534.94;4972408;28;20065;-77
2022/10/10 05:28:23;;;;;;;1999.90;999.90;;;;;;;12.71;100.00;98531.91;4972338;28;20058;-75
2022/10/10 05:30:49;;;;;;;1999.90;999.90;;;;;;;12.67;100.00;98528.94;4972790;28;20047;-76
2022/10/10 05:33:15;;;;;;;1999.90;999.90;;;;;;;12.72;100.00;98537.09;4976781;28;20030;-76
2022/10/10 05:35:40;;;;;;;1999.90;999.90;;;;;;;12.70;100.00;98522.84;4983029;28;20053;-78
2022/10/10 05:38:06;;;;;;;1999.90;999.90;;;;;;;12.78;100.00;98530.41;4971672;28;20030;-77
2022/10/10 05:40:31;;;;;;;1999.90;999.90;;;;;;;12.80;100.00;98528.22;4972976;28;20043;-76
2022/10/10 05:42:57;;;;;;;1999.90;999.90;;;;;;;12.74;100.00;98534.88;4974252;28;20424;-75
2022/10/10 05:45:22;;;;;;;1999.90;999.90;;;;;;;12.81;100.00;98537.28;4985411;28;20043;-74
2022/10/10 05:47:48;;;;;;;1999.90;999.90;;;;;;;12.87;100.00;98539.63;4979956;28;20027;-72
2022/10/10 05:50:28;;;;;;;1999.90;999.90;;;;;;;13.02;100.00;98540.53;4951320;28;20035;-74
2022/10/10 05:52:53;;;;;;;1999.90;999.90;;;;;;;12.99;100.00;98541.97;4952227;29;20023;-74
2022/10/10 05:55:19;;;;;;;1999.90;999.90;;;;;;;12.96;100.00;98547.22;4951672;29;20037;-74
2022/10/10 05:57:44;;;;;;;1999.90;999.90;;;;;;;13.02;100.00;98549.59;4961421;28;20484;-72
2022/10/10 06:00:10;;;;;;;1999.90;999.90;;;;;;;13.01;100.00;98549.88;4971890;28;20496;-75
2022/10/10 06:02:35;;;;;;;1999.90;999.90;;;;;;;13.04;100.00;98550.09;4971322;28;20169;-74
2022/10/10 06:05:01;;;;;;;1999.90;999.90;;;;;;;13.05;100.00;98546.25;4971487;28;20046;-72
2022/10/10 06:07:26;;;;;;;1999.90;999.90;;;;;;;13.14;100.00;98552.75;4955536;28;20469;-73
2022/10/10 06:09:51;;;;;;;1999.90;999.90;;;;;;;13.13;100.00;98548.34;4952288;28;20031;-73
2022/10/10 06:12:17;;;;;;;1999.90;999.90;;;;;;;13.16;100.00;98552.44;4952123;29;20086;-72
2022/10/10 06:14:42;;;;;;;1999.90;999.90;;;;;;;13.22;100.00;98540.25;4951917;29;20035;-73
2022/10/10 06:17:08;;;;;;;1999.90;999.90;;;;;;;13.31;100.00;98544.00;4952017;28;20034;-73
2022/10/10 06:19:33;;;;;;;1999.90;999.90;;;;;;;13.41;100.00;98530.06;4952095;29;20031;-76
2022/10/10 06:21:58;;;;;;;1999.90;999.90;;;;;;;13.58;100.00;98549.59;4952631;28;20031;-77
2022/10/10 06:24:24;;;;;;;1999.90;999.90;;;;;;;13.53;100.00;98549.69;4955090;29;20028;-77
2022/10/10 06:26:49;;;;;;;1999.90;999.90;;;;;;;13.53;100.00;98554.34;4953913;29;20118;-77
2022/10/10 06:29:14;;;;;;;1999.90;999.90;;;;;;;13.65;100.00;98555.53;4952363;29;20061;-78
2022/10/10 06:31:42;;;;;;;1999.90;999.90;;;;;;;13.66;100.00;98559.88;4952064;29;20485;-77
2022/10/10 06:34:08;;;;;;;1999.90;999.90;;;;;;;13.72;100.00;98564.19;4952158;29;20050;-78
2022/10/10 06:36:34;;;;;;;1999.90;999.90;;;;;;;13.77;100.00;98566.03;4951575;29;20035;-76
2022/10/10 06:38:59;;;;;;;1999.90;999.90;;;;;;;13.84;100.00;98567.28;4951919;29;20031;-79
2022/10/10 06:41:25;;;;;;;1999.90;999.90;;;;;;;13.84;100.00;98572.81;4968256;28;20081;-78
2022/10/10 06:43:50;;;;;;;1999.90;999.90;;;;;;;13.84;100.00;98570.03;4970901;28;20481;-78
2022/10/10 06:46:16;;;;;;;1999.90;999.90;;;;;;;13.95;100.00;98571.50;4971271;28;20369;-76
2022/10/10 06:48:42;;;;;;;1999.90;999.90;;;;;;;14.15;100.00;98569.50;4959709;28;20477;-78
2022/10/10 06:51:12;;;;;;;1999.90;999.90;;;;;;;14.12;100.00;98572.84;4953143;29;20035;-78
2022/10/10 06:53:37;;;;;;;1999.90;999.90;;;;;;;14.27;100.00;98575.31;4957547;28;20043;-78
2022/10/10 06:56:03;;;;;;;1999.90;999.90;;;;;;;14.00;100.00;98572.53;4995661;28;20027;-78
2022/10/10 06:58:29;;;;;;;1999.90;999.90;;;;;;;13.88;100.00;98583.97;4990630;28;20082;-78
2022/10/10 07:00:58;;;;;;;1999.90;999.90;;;;;;;13.76;100.00;98595.47;4991219;28;20034;-77
2022/10/10 07:03:23;;;;;;;1999.90;999.90;;;;;;;13.76;100.00;98595.47;4993419;28;20113;-78
2022/10/10 07:05:51;;;;;;;1999.90;999.90;;;;;;;13.35;100.00;98588.97;4994411;28;20057;-77
2022/10/10 07:08:17;;;;;;;1999.90;999.90;;;;;;;13.30;100.00;98602.78;4994178;28;20058;-78
2022/10/10 07:10:42;;;;;;;1999.90;999.90;;;;;;;13.17;100.00;98598.84;4994636;28;20038;-77
2022/10/10 07:13:08;;;;;;;1999.90;999.90;;;;;;;13.08;100.00;98605.28;4994517;28;20027;-79
2022/10/10 07:15:33;;;;;;;1999.90;999.90;;;;;;;13.29;100.00;98601.97;4994127;28;20042;-78
2022/10/10 07:17:59;;;;;;;1999.90;999.90;;;;;;;13.62;100.00;98604.78;4994000;28;20035;-78
2022/10/10 07:20:26;;;;;;;1999.90;999.90;;;;;;;13.98;100.00;98599.50;4969644;28;20031;-78
2022/10/10 07:22:51;;;;;;;1999.90;999.90;;;;;;;14.31;100.00;98595.63;4956340;28;20593;-78
2022/10/10 07:25:17;;;;;;;1999.90;999.90;;;;;;;14.64;100.00;98596.38;4958704;28;20121;-78
2022/10/10 07:27:42;;;;;;;1999.90;999.90;;;;;;;14.90;100.00;98603.00;4974250;28;20026;-78
2022/10/10 07:30:08;;;;;;;1999.90;999.90;;;;;;;15.88;100.00;98607.66;4975020;28;20035;-78
2022/10/10 07:32:33;;;;;;;1999.90;999.90;;;;;;;16.76;100.00;98616.94;4974937;28;20031;-79
2022/10/10 07:34:59;;;;;;;1999.90;999.90;;;;;;;16.95;100.00;98611.97;4973527;28;20030;-76
2022/10/10 07:37:24;;;;;;;1999.90;999.90;;;;;;;16.93;100.00;98607.91;4971373;28;20462;-79
2022/10/10 07:39:53;;;;;;;1999.90;999.90;;;;;;;17.26;100.00;98617.41;4954973;29;20050;-76
2022/10/10 07:42:18;;;;;;;1999.90;999.90;;;;;;;17.30;100.00;98623.13;4959202;28;20034;-76
2022/10/10 07:44:44;;;;;;;1999.90;999.90;;;;;;;17.47;100.00;98628.69;4969837;28;20035;-76
2022/10/10 07:47:09;;;;;;;1999.90;999.90;;;;;;;17.71;100.00;98612.44;4982309;28;20037;-77
2022/10/10 07:49:34;;;;;;;1999.90;999.90;;;;;;;18.48;99.04;98614.28;4980834;28;20027;-77
2022/10/10 07:52:00;;;;;;;1999.90;999.90;;;;;;;20.32;82.20;98613.31;4983691;28;20026;-77
2022/10/10 07:54:25;;;;;;;1999.90;999.90;;;;;;;21.50;74.21;98614.91;4985638;28;20483;-77
2022/10/10 07:56:50;;;;;;;1999.90;999.90;;;;;;;22.58;69.29;98603.72;4980814;28;20089;-75
2022/10/10 07:59:16;;;;;;;1999.90;999.90;;;;;;;23.25;67.80;98623.00;4983718;28;20192;-76
2022/10/10 08:01:41;;;;;;;1999.90;999.90;;;;;;;22.86;63.40;98616.47;4983235;28;20018;-77
2022/10/10 08:04:06;;;;;;;1999.90;999.90;;;;;;;22.55;64.67;98610.00;4978140;28;20027;-75
2022/10/10 08:06:32;;;;;;;1999.90;999.90;;;;;;;22.61;64.85;98614.97;4971038;28;20046;-76
2022/10/10 08:08:57;;;;;;;1999.90;999.90;;;;;;;21.48;69.04;98610.84;4981947;28;20393;-75
2022/10/10 08:11:25;;;;;;;1999.90;999.90;;;;;;;21.06;70.47;98610.28;4983248;28;20041;-75
2022/10/10 08:13:50;;;;;;;1999.90;999.90;;;;;;;19.73;74.68;98599.63;4981629;28;20487;-76
2022/10/10 08:16:16;;;;;;;1999.90;999.90;;;;;;;20.15;74.63;98597.56;4978588;28;20023;-76
2022/10/10 08:18:42;;;;;;;1999.90;999.90;;;;;;;20.47;73.16;98593.19;4983731;28;20040;-74
2022/10/10 08:21:11;;;;;;;1999.90;999.90;;;;;;;20.75;70.93;98594.16;4981541;28;20042;-76
2022/10/10 08:23:37;;;;;;;1999.90;999.90;;;;;;;20.03;70.42;98594.75;4984179;28;20037;-76
2022/10/10 08:26:06;;;;;;;1999.90;999.90;;;;;;;19.46;74.62;98597.34;4981378;28;20027;-75
2022/10/10 08:28:31;;;;;;;1999.90;999.90;;;;;;;19.21;77.07;98588.03;4982746;28;20030;-74
2022/10/10 08:31:00;;;;;;;1999.90;999.90;;;;;;;19.42;76.87;98588.88;4983835;28;20383;-76
2022/10/10 08:33:26;;;;;;;1999.90;999.90;;;;;;;20.01;74.18;98589.56;4983398;28;20086;-77
2022/10/10 08:35:52;;;;;;;1999.90;999.90;;;;;;;20.78;71.08;98596.25;4981772;28;20090;-75
2022/10/10 08:38:17;;;;;;;1999.90;999.90;;;;;;;21.63;66.51;98593.41;4981896;28;20486;-76
2022/10/10 08:40:52;;;;;;;1999.90;999.90;;;;;;;23.15;58.80;98600.41;4980479;28;20038;-74
2022/10/10 08:43:26;;;;;;;1999.90;999.90;;;;;;;24.49;53.35;98608.97;4979265;28;20437;-76
2022/10/10 08:45:56;;;;;;;1999.90;999.90;;;;;;;24.16;52.68;98606.72;4973106;28;20025;-76
2022/10/10 08:48:26;;;;;;;1999.90;999.90;;;;;;;23.23;56.08;98600.22;4973391;28;20042;-77
2022/10/10 08:51:08;;;;;;;1999.90;999.90;;;;;;;23.22;55.14;98595.78;4973592;28;20031;-77
2022/10/10 08:53:37;;;;;;;1999.90;999.90;;;;;;;21.45;57.64;98597.63;4973613;28;20113;-76
2022/10/10 08:56:06;;;;;;;1999.90;999.90;;;;;;;21.74;53.32;98591.78;4973447;28;20166;-75
2022/10/10 08:58:37;;;;;;;1999.90;999.90;;;;;;;22.49;52.43;98591.91;4973782;28;20031;-76
2022/10/10 09:01:18;;;;;;;1999.90;999.90;;;;;;;22.07;51.95;98584.00;4976849;28;20030;-76
2022/10/10 09:03:48;;;;;;;1999.90;999.90;;;;;;;23.52;48.87;98590.53;4981002;28;20050;-75
2022/10/10 09:06:32;;;;;;;1999.90;999.90;;;;;;;23.13;49.31;98591.56;4976627;28;20026;-76
2022/10/10 09:09:04;;;;;;;1999.90;999.90;;;;;;;24.66;41.33;98602.06;4974350;28;20027;-77
2022/10/10 09:11:50;;;;;;;1999.90;999.90;;;;;;;24.54;45.02;98594.66;4972870;28;20514;-75
2022/10/10 09:14:25;;;;;;;1999.90;999.90;;;;;;;24.25;44.37;98593.31;4973253;28;20032;-76
2022/10/10 09:17:14;;;;;;;1999.90;999.90;;;;;;;22.90;47.01;98594.19;4973067;28;20042;-76
2022/10/10 09:20:25;;;;;;;1999.90;999.90;;;;;;;23.17;46.32;98592.47;4972794;28;20498;-76
2022/10/10 09:22:59;;;;;;;1999.90;999.90;;;;;;;23.90;45.81;98592.56;4972853;28;20033;-75
2022/10/10 09:25:41;;;;;;;1999.90;999.90;;;;;;;22.70;46.85;98593.31;4972332;28;20511;-76
2022/10/10 09:28:13;;;;;;;1999.90;999.90;;;;;;;21.39;49.86;98588.72;4972698;28;20046;-75
2022/10/10 09:30:44;;;;;;;1999.90;999.90;;;;;;;21.25;51.34;98580.72;4973222;28;20195;-75
2022/10/10 09:33:26;;;;;;;1999.90;999.90;;;;;;;20.93;51.65;98578.84;4972901;28;20062;-74
2022/10/10 09:35:53;;;;;;;1999.90;999.90;;;;;;;21.08;49.84;98580.94;4974173;28;20026;-75
2022/10/10 09:38:19;;;;;;;1999.90;999.90;;;;;;;20.96;50.94;98578.16;4973564;28;20058;-74
2022/10/10 09:40:53;;;;;;;1999.90;999.90;;;;;;;21.29;50.98;98581.66;4972588;28;20077;-74
2022/10/10 09:43:19;;;;;;;1999.90;999.90;;;;;;;21.03;50.69;98583.97;4972669;28;20031;-74
2022/10/10 09:45:52;;;;;;;1999.90;999.90;;;;;;;20.76;51.82;98585.47;4972798;28;20035;-75
2022/10/10 09:48:21;;;;;;;1999.90;999.90;;;;;;;20.29;53.49;98573.13;4974872;28;20035;-75
2022/10/10 09:50:46;;;;;;;1999.90;999.90;;;;;;;20.21;54.15;98580.34;4976020;28;20034;-75
2022/10/10 09:53:15;;;;;;;1999.90;999.90;;;;;;;19.71;56.27;98574.94;4973813;28;20026;-75
2022/10/10 09:55:41;;;;;;;1999.90;999.90;;;;;;;19.81;56.28;98576.50;4971053;28;20099;-75
2022/10/10 09:58:25;;;;;;;1999.90;999.90;;;;;;;19.02;58.64;98574.59;4972201;28;20034;-75
2022/10/10 10:00:52;;;;;;;1999.90;999.90;;;;;;;18.86;60.03;98570.78;4972641;28;20041;-75
2022/10/10 10:03:19;;;;;;;1999.90;999.90;;;;;;;18.16;63.20;98566.66;4972537;28;20054;-75
2022/10/10 10:06:03;;;;;;;1999.90;999.90;;;;;;;19.07;62.61;98566.13;4974012;28;20034;-76
2022/10/10 10:08:32;;;;;;;1999.90;999.90;;;;;;;19.10;61.52;98572.94;4973690;28;20062;-77
2022/10/10 10:10:58;;;;;;;1999.90;999.90;;;;;;;19.46;61.01;98566.84;4977842;28;20090;-76
2022/10/10 10:13:35;;;;;;;1999.90;999.90;;;;;;;20.13;59.29;98561.81;4971494;28;20045;-77
2022/10/10 10:16:13;;;;;;;1999.90;999.90;;;;;;;20.15;59.01;98569.78;4978910;28;20133;-75
2022/10/10 10:18:46;;;;;;;1999.90;999.90;;;;;;;20.78;56.58;98560.09;4973932;28;20014;-77
2022/10/10 10:21:16;;;;;;;1999.90;999.90;;;;;;;20.88;56.46;98558.81;4980051;28;20744;-75
2022/10/10 10:23:51;;;;;;;1999.90;999.90;;;;;;;20.63;57.90;98558.81;4983312;28;20034;-74
2022/10/10 10:26:43;;;;;;;1999.90;999.90;;;;;;;21.36;54.86;98565.16;4978620;28;20041;-75
2022/10/10 10:29:28;;;;;;;1999.90;999.90;;;;;;;23.29;49.17;98565.25;4981291;28;20089;-76
2022/10/10 10:32:11;;;;;;;1999.90;999.90;;;;;;;24.59;44.68;98557.19;4978307;28;20023;-76
2022/10/10 10:35:11;;;;;;;1999.90;999.90;;;;;;;23.89;45.87;98560.19;4978522;28;20045;-76
2022/10/10 10:37:49;;;;;;;1999.90;999.90;;;;;;;22.35;50.33;98551.31;4976686;28;20019;-76
2022/10/10 10:40:28;;;;;;;1999.90;999.90;;;;;;;20.62;55.62;98550.81;4980114;28;20503;-77
2022/10/10 10:43:15;;;;;;;1999.90;999.90;;;;;;;20.88;56.12;98544.91;4980632;28;20027;-77
2022/10/10 10:46:05;;;;;;;1999.90;999.90;;;;;;;20.59;56.77;98540.38;4980955;28;20065;-77
2022/10/10 10:49:02;;;;;;;1999.90;999.90;;;;;;;20.83;56.36;98551.53;4978596;28;20037;-76
2022/10/10 10:51:35;;;;;;;1999.90;999.90;;;;;;;20.64;56.23;98545.72;4977349;28;20031;-75
2022/10/10 10:54:22;;;;;;;1999.90;999.90;;;;;;;21.33;54.66;98545.59;4978919;28;20033;-77
2022/10/10 10:57:08;;;;;;;1999.90;999.90;;;;;;;21.18;54.38;98544.31;4980942;28;20038;-77